Latest Weather Observations for Gannett Cay

IDQ60801

Issued at 5:05 am EST Saturday 29 November 2014 (issued every 30 minutes, with the page automatically refreshed every 10 minutes)

About weather observations | Map of weather stations | Latest weather observations for QLD | Other Formats
Station Details ID: 200831 Name: GANNET CAY Lat: -21.98 Lon: 152.47 Height: 2.3 m
Data from the previous 72 hours. | See also: Recent months for locations in Queensland
Date/Time
EST
Temp
°C
App
Temp
°C
Dew
Point
Rel
Hum
%
Delta-T
°C
Wind Press
QNH
hPa
Press
MSL
hPa
Rain
since 9 am
mm
Dir
 
Spd
km/h
Gust
km/h
Spd
kts
Gust
kts
29/05:00am 24.8 - - - - ESE 32 37 17 20 1012.6 - -
29/04:30am 24.9 - - - - ESE 33 39 18 21 1012.2 - -
29/04:29am 24.9 - - - - ESE 33 - 18 - - 1012.3 -
29/04:00am 25.1 - - - - ESE 35 43 19 23 1012.1 - -
29/03:30am 24.4 - - - - ESE 39 44 21 24 1012.1 - -
29/03:29am 24.4 - - - - ESE 39 - 21 - - 1012.1 -
29/03:00am 24.9 - - - - ESE 39 44 21 24 1012.0 - -
29/02:57am 24.8 - - - - ESE 37 44 20 24 1012.0 - -
29/02:30am 24.0 - - - - SE 24 30 13 16 1012.3 - -
29/02:29am 24.0 - - - - SE 24 - 13 - - 1012.4 -
29/02:00am 23.2 - - - - SE 35 48 19 26 1012.6 - -
29/01:30am 25.2 - - - - ESE 37 43 20 23 1012.6 - -
29/01:29am 25.2 - - - - ESE 37 - 20 - - 1012.7 -
29/01:00am 25.2 - - - - ESE 39 44 21 24 1012.7 - -
29/12:30am 25.2 - - - - ESE 39 44 21 24 1013.1 - -
29/12:29am 25.3 - - - - ESE 39 - 21 - - 1013.1 -
29/12:00am 25.4 - - - - ESE 39 44 21 24 1013.4 - -
 
Date/Time
EST
Temp
°C
App
Temp
°C
Dew
Point
Rel
Hum
%
Delta-T
°C
Wind Press
QNH
hPa
Press
MSL
hPa
Rain
since 9 am
mm
Dir
 
Spd
km/h
Gust
km/h
Spd
kts
Gust
kts
28/11:30pm 25.4 - - - - E 41 46 22 25 1013.6 - -
28/11:29pm 25.4 - - - - E 41 - 22 - - 1013.7 -
28/11:00pm 25.3 - - - - ESE 39 44 21 24 1013.8 - -
28/10:30pm 25.3 - - - - ESE 39 44 21 24 1013.8 - -
28/10:29pm 25.3 - - - - ESE 39 - 21 - - 1013.9 -
28/10:00pm 25.4 - - - - ESE 43 48 23 26 1014.0 - -
28/09:30pm 25.4 - - - - ESE 39 48 21 26 1014.1 - -
28/09:29pm 25.4 - - - - ESE 39 - 21 - - 1014.2 -
28/09:00pm 25.5 - - - - ESE 41 46 22 25 1013.9 - -
28/08:30pm 25.4 - - - - ESE 44 50 24 27 1013.8 - -
28/08:29pm 25.3 - - - - ESE 44 - 24 - - 1014.0 -
28/08:00pm 25.3 - - - - ESE 41 50 22 27 1013.7 - -
28/07:30pm 25.4 - - - - ESE 43 50 23 27 1013.6 - -
28/07:29pm 25.4 - - - - ESE 41 - 22 - - 1013.7 -
28/07:00pm 25.4 - - - - ESE 43 48 23 26 1013.3 - -
28/06:30pm 25.4 - - - - ESE 41 46 22 25 1013.3 - -
28/06:29pm 25.4 - - - - ESE 41 - 22 - - 1013.4 -
28/06:00pm 25.5 - - - - SE 41 46 22 25 1013.4 - -
28/05:30pm 25.8 - - - - SE 39 46 21 25 1013.1 - -
28/05:29pm 25.8 - - - - ESE 39 - 21 - - 1013.2 -
28/05:00pm 25.8 - - - - SE 41 48 22 26 1012.9 - -
28/04:30pm 26.0 - - - - SE 39 48 21 26 1012.5 - -
28/04:29pm 26.0 - - - - SE 39 - 21 - - 1012.6 -
28/04:00pm 25.8 - - - - SE 41 48 22 26 1012.5 - -
28/03:30pm 26.0 - - - - SE 37 43 20 23 1012.6 - -
28/03:29pm 26.0 - - - - SE 37 - 20 - - 1012.7 -
28/03:00pm 26.2 - - - - SE 39 43 21 23 1012.7 - -
28/02:30pm 25.9 - - - - SE 37 43 20 23 1012.7 - -
28/02:29pm 26.0 - - - - SE 37 - 20 - - 1012.8 -
28/02:00pm 26.0 - - - - SE 39 43 21 23 1012.7 - -
28/01:30pm 25.9 - - - - SE 37 43 20 23 1012.9 - -
28/01:29pm 26.0 - - - - SE 37 - 20 - - 1013.0 -
28/01:00pm 26.0 - - - - SE 39 44 21 24 1013.1 - -
28/12:30pm 25.7 - - - - SE 37 43 20 23 1013.2 - -
28/12:29pm 25.8 - - - - SE 37 - 20 - - 1013.3 -
28/12:00pm 25.9 - - - - SE 35 41 19 22 1013.5 - -
28/11:30am 25.9 - - - - SE 33 37 18 20 1013.7 - -
28/11:29am 25.9 - - - - SE 33 - 18 - - 1013.8 -
28/11:00am 25.9 - - - - SE 32 37 17 20 1014.1 - -
28/10:30am 25.9 - - - - SE 32 35 17 19 1014.2 - -
28/10:29am 25.9 - - - - SE 32 - 17 - - 1014.3 -
28/10:00am 25.9 - - - - SE 33 35 18 19 1014.2 - -
28/09:30am 26.0 - - - - SE 30 35 16 19 1014.3 - -
28/09:29am 26.0 - - - - SE 30 - 16 - - 1014.4 -
28/09:00am 25.8 - - - - SE 30 33 16 18 1014.3 - -
28/08:30am 25.8 - - - - SE 28 32 15 17 1014.2 - -
28/08:29am 25.8 - - - - SE 28 - 15 - - 1014.3 -
28/08:00am 25.9 - - - - SE 26 30 14 16 1014.0 - -
28/07:30am 25.6 - - - - ESE 28 32 15 17 1013.8 - -
28/07:29am 25.6 - - - - ESE 28 - 15 - - 1013.9 -
28/07:00am 25.6 - - - - ESE 26 30 14 16 1013.4 - -
28/06:30am 25.6 - - - - ESE 28 32 15 17 1013.3 - -
28/06:29am 25.6 - - - - ESE 28 - 15 - - 1013.4 -
28/06:00am 25.3 - - - - ESE 30 35 16 19 1013.4 - -
28/05:30am 25.0 - - - - ESE 32 35 17 19 1013.2 - -
28/05:29am 25.1 - - - - ESE 32 - 17 - - 1013.2 -
28/05:00am 25.0 - - - - ESE 32 37 17 20 1012.6 - -
28/04:30am 25.0 - - - - ESE 30 33 16 18 1012.4 - -
28/04:29am 25.0 - - - - ESE 30 - 16 - - 1012.5 -
28/04:00am 24.9 - - - - ESE 30 35 16 19 1012.2 - -
28/03:30am 25.0 - - - - ESE 30 35 16 19 1012.1 - -
28/03:29am 25.0 - - - - ESE 30 - 16 - - 1012.2 -
28/03:00am 25.1 - - - - ESE 32 35 17 19 1012.1 - -
28/02:30am 25.0 - - - - ESE 30 35 16 19 1012.1 - -
28/02:29am 25.0 - - - - ESE 30 - 16 - - 1012.3 -
28/02:00am 25.1 - - - - ESE 32 37 17 20 1012.1 - -
28/01:30am 25.0 - - - - E 33 37 18 20 1011.9 - -
28/01:29am 25.2 - - - - E 33 - 18 - - 1012.0 -
28/01:00am 25.2 - - - - E 35 39 19 21 1012.3 - -
28/12:30am 25.2 - - - - ESE 33 37 18 20 1012.5 - -
28/12:29am 25.2 - - - - E 33 - 18 - - 1012.6 -
28/12:00am 25.4 - - - - ESE 33 39 18 21 1012.8 - -
 
Date/Time
EST
Temp
°C
App
Temp
°C
Dew
Point
Rel
Hum
%
Delta-T
°C
Wind Press
QNH
hPa
Press
MSL
hPa
Rain
since 9 am
mm
Dir
 
Spd
km/h
Gust
km/h
Spd
kts
Gust
kts
27/11:30pm 25.4 - - - - ESE 33 39 18 21 1012.9 - -
27/11:29pm 25.3 - - - - ESE 33 - 18 - - 1013.0 -
27/11:00pm 25.4 - - - - ESE 32 35 17 19 1013.2 - -
27/10:30pm 25.3 - - - - ESE 32 35 17 19 1013.4 - -
27/10:29pm 25.2 - - - - ESE 30 - 16 - - 1013.5 -
27/10:00pm 25.4 - - - - ESE 30 33 16 18 1013.6 - -
27/09:30pm 25.3 - - - - ESE 30 33 16 18 1013.9 - -
27/09:29pm 25.3 - - - - ESE 30 - 16 - - 1014.0 -
27/09:00pm 25.3 - - - - SE 33 39 18 21 1013.6 - -
27/08:30pm 25.4 - - - - SE 32 35 17 19 1013.5 - -
27/08:29pm 25.3 - - - - SE 32 - 17 - - 1013.7 -
27/08:00pm 25.4 - - - - SE 30 33 16 18 1013.4 - -
27/07:30pm 25.4 - - - - SE 30 35 16 19 1013.3 - -
27/07:29pm 25.4 - - - - SE 30 - 16 - - 1013.4 -
27/07:00pm 25.4 - - - - SE 28 32 15 17 1013.2 - -
27/06:30pm 25.5 - - - - SE 28 32 15 17 1013.0 - -
27/06:29pm 25.6 - - - - SE 28 - 15 - - 1013.1 -
27/06:00pm 25.7 - - - - SE 26 32 14 17 1013.0 - -
27/05:30pm 26.1 - - - - SE 28 32 15 17 1012.8 - -
27/05:29pm 26.0 - - - - SE 28 - 15 - - 1012.9 -
27/05:00pm 25.7 - - - - SE 26 30 14 16 1012.4 - -
27/04:30pm 25.7 - - - - SE 24 28 13 15 1012.1 - -
27/04:29pm 25.8 - - - - SE 26 - 14 - - 1012.2 -
27/04:00pm 25.9 - - - - SE 26 30 14 16 1011.9 - -
27/03:30pm 25.9 - - - - SE 24 28 13 15 1011.8 - -
27/03:29pm 25.9 - - - - SE 24 - 13 - - 1011.9 -
27/03:00pm 26.2 - - - - SE 26 28 14 15 1012.0 - -
27/02:30pm 26.3 - - - - SE 24 30 13 16 1012.1 - -
27/02:29pm 26.3 - - - - SE 24 - 13 - - 1012.2 -
27/02:00pm 26.2 - - - - ESE 24 26 13 14 1012.2 - -
27/01:30pm 26.3 - - - - ESE 20 24 11 13 1012.6 - -
27/01:29pm 26.3 - - - - ESE 20 - 11 - - 1012.6 -
27/01:00pm 26.1 - - - - ESE 20 22 11 12 1012.6 - -
27/12:30pm 26.4 - - - - ESE 17 20 9 11 1012.9 - -
27/12:29pm 26.2 - - - - ESE 19 - 10 - - 1013.1 -
27/12:00pm 26.3 - - - - ESE 17 19 9 10 1013.2 - -
27/11:30am 25.9 - - - - E 17 19 9 10 1013.6 - -
27/11:29am 26.0 - - - - E 17 - 9 - - 1013.7 -
27/11:00am 26.0 - - - - E 17 20 9 11 1013.8 - -
27/10:30am 26.0 - - - - E 17 20 9 11 1014.0 - -
27/10:29am 26.0 - - - - E 17 - 9 - - 1014.1 -
27/10:00am 25.9 - - - - E 20 24 11 13 1014.3 - -
27/09:30am 25.8 - - - - E 22 24 12 13 1014.4 - -
27/09:29am 25.9 - - - - E 22 - 12 - - 1014.4 -
27/09:00am 25.7 - - - - E 22 26 12 14 1014.2 - -
27/08:30am 25.9 - - - - E 24 28 13 15 1014.2 - -
27/08:29am 25.8 - - - - E 24 - 13 - - 1014.3 -
27/08:00am 25.8 - - - - E 24 28 13 15 1014.1 - -
27/07:30am 25.7 - - - - E 26 32 14 17 1013.9 - -
27/07:29am 25.6 - - - - E 28 - 15 - - 1014.0 -
27/07:00am 25.5 - - - - E 30 33 16 18 1013.9 - -
27/06:30am 25.5 - - - - E 30 35 16 19 1013.6 - -
27/06:29am 25.5 - - - - E 30 - 16 - - 1013.7 -
27/06:00am 25.4 - - - - ENE 28 33 15 18 1013.6 - -
27/05:30am 25.1 - - - - ENE 32 35 17 19 1013.5 - -
27/05:29am 25.1 - - - - ENE 32 - 17 - - 1013.6 -
27/05:00am 25.2 - - - - E 30 35 16 19 1013.4 - -
27/04:30am 25.1 - - - - E 33 35 18 19 1013.2 - -
27/04:29am 25.1 - - - - E 32 - 17 - - 1013.3 -
27/04:00am 25.0 - - - - E 30 35 16 19 1013.0 - -
27/03:30am 25.2 - - - - E 30 35 16 19 1012.9 - -
27/03:29am 25.3 - - - - E 30 - 16 - - 1012.9 -
27/03:00am 25.3 - - - - E 33 39 18 21 1012.6 - -
27/02:30am 25.3 - - - - E 32 35 17 19 1012.7 - -
27/02:29am 25.3 - - - - E 32 - 17 - - 1012.8 -
27/02:00am 25.3 - - - - E 32 37 17 20 1012.9 - -
27/01:30am 25.4 - - - - E 33 37 18 20 1013.2 - -
27/01:29am 25.3 - - - - E 33 - 18 - - 1013.3 -
27/01:00am 25.3 - - - - E 32 35 17 19 1013.3 - -
27/12:30am 25.4 - - - - E 32 35 17 19 1013.4 - -
27/12:29am 25.4 - - - - E 32 - 17 - - 1013.5 -
27/12:00am 25.5 - - - - E 28 33 15 18 1014.0 - -
 
Date/Time
EST
Temp
°C
App
Temp
°C
Dew
Point
Rel
Hum
%
Delta-T
°C
Wind Press
QNH
hPa
Press
MSL
hPa
Rain
since 9 am
mm
Dir
 
Spd
km/h
Gust
km/h
Spd
kts
Gust
kts
26/11:30pm 25.4 - - - - E 32 35 17 19 1014.1 - -
26/11:29pm 25.5 - - - - E 32 - 17 - - 1014.2 -
26/11:00pm 25.6 - - - - E 33 39 18 21 1014.2 - -
26/10:30pm 25.6 - - - - E 33 37 18 20 1014.4 - -
26/10:29pm 25.5 - - - - E 33 - 18 - - 1014.5 -
26/10:00pm 25.6 - - - - E 33 39 18 21 1014.5 - -
26/09:30pm 25.6 - - - - E 32 39 17 21 1014.3 - -
26/09:29pm 25.6 - - - - E 32 - 17 - - 1014.4 -
26/09:00pm 25.6 - - - - E 30 33 16 18 1014.3 - -
26/08:30pm 25.7 - - - - E 28 33 15 18 1014.4 - -
26/08:29pm 25.7 - - - - E 28 - 15 - - 1014.5 -
26/08:00pm 25.6 - - - - ESE 24 28 13 15 1014.3 - -
26/07:30pm 25.6 - - - - SE 22 26 12 14 1014.2 - -
26/07:29pm 25.6 - - - - SE 22 - 12 - - 1014.3 -
26/07:00pm 25.6 - - - - ESE 20 24 11 13 1014.0 - -
26/06:30pm 25.7 - - - - ESE 19 22 10 12 1013.9 - -
26/06:29pm 25.6 - - - - ESE 19 - 10 - - 1014.0 -
26/06:00pm 25.8 - - - - ESE 19 22 10 12 1013.7 - -
26/05:30pm 25.9 - - - - ESE 22 26 12 14 1013.4 - -
26/05:29pm 25.9 - - - - ESE 22 - 12 - - 1013.5 -
26/05:00pm 26.3 - - - - ESE 22 24 12 13 1013.0 - -
26/04:30pm 26.1 - - - - ESE 24 28 13 15 1012.8 - -
26/04:29pm 26.1 - - - - ESE 24 - 13 - - 1012.9 -
26/04:00pm 26.3 - - - - ESE 24 28 13 15 1012.6 - -
26/03:30pm 26.0 - - - - E 24 28 13 15 1012.4 - -
26/03:29pm 26.0 - - - - E 24 - 13 - - 1012.5 -
26/03:00pm 25.9 - - - - E 22 26 12 14 1012.6 - -
26/02:30pm 25.8 - - - - E 24 28 13 15 1012.8 - -
26/02:29pm 25.8 - - - - E 24 - 13 - - 1012.9 -
26/02:00pm 25.9 - - - - E 22 26 12 14 1012.9 - -
26/01:30pm 25.8 - - - - E 22 26 12 14 1013.0 - -
26/01:29pm 25.8 - - - - E 22 - 12 - - 1013.1 -
26/01:00pm 25.6 - - - - E 22 26 12 14 1013.2 - -
26/12:30pm 25.8 - - - - E 22 24 12 13 1013.6 - -
26/12:29pm 25.7 - - - - E 22 - 12 - - 1013.8 -
26/12:00pm 25.7 - - - - E 24 28 13 15 1013.9 - -
26/11:30am 25.7 - - - - E 28 32 15 17 1013.9 - -
26/11:29am 25.6 - - - - E 28 - 15 - - 1014.0 -
26/11:00am 25.6 - - - - E 28 32 15 17 1014.3 - -
26/10:30am 25.6 - - - - E 30 33 16 18 1014.5 - -
26/10:29am 25.5 - - - - E 30 - 16 - - 1014.6 -
26/10:00am 25.6 - - - - E 28 30 15 16 1015.0 - -
26/09:30am 25.6 - - - - E 28 32 15 17 1015.1 - -
26/09:29am 25.6 - - - - E 28 - 15 - - 1015.2 -
26/09:00am 25.5 - - - - E 26 32 14 17 1015.0 - -
26/08:30am 25.5 - - - - E 32 37 17 20 1014.8 - -
26/08:29am 25.6 - - - - E 32 - 17 - - 1014.9 -
26/08:00am 25.6 - - - - E 33 39 18 21 1014.6 - -
26/07:30am 25.4 - - - - E 35 39 19 21 1014.5 - -
26/07:29am 25.4 - - - - E 33 - 18 - - 1014.6 -
26/07:00am 25.5 - - - - E 33 37 18 20 1014.4 - -
26/06:30am 25.5 - - - - E 35 41 19 22 1014.0 - -
26/06:29am 25.4 - - - - E 35 - 19 - - 1014.1 -
26/06:00am 25.2 - - - - E 33 37 18 20 1013.9 - -
26/05:30am 25.0 - - - - E 28 30 15 16 1013.6 - -
26/05:29am 25.0 - - - - E 28 - 15 - - 1013.7 -

Other Formats:

Comma delimited format used in spreadsheet applications
http://www.bom.gov.au/fwo/IDQ60801/IDQ60801.94379.axf

JavaScript Object Notation format (JSON) in row-major order
http://www.bom.gov.au/fwo/IDQ60801/IDQ60801.94379.json